Toulon, Nevada
Current Conditions -  °F | °C
As of 2:53 AM on Sunday 21 Dec 2014 (Local Time) from KLOL Reporting Station
Broken Clouds Broken Clouds  
Wind Chill: 37°   Ceiling: 4700
Heat Index: 41°   Visibility: 10mi
Dew Point: 38°   Wind: 6mph
Humidity: 89%   Direction: 130°SE
Pressure: 30.13"   Gusts: NA
Location:  40.3545°N, 118.628°W
Report Text: KLOL 211053Z AUTO 13005KT 10SM BKN047 BKN055 05/03 A3013 RMK AO2 SLP209 T00500033
Loading
Personal Weather Stations






























Interactive Weather Map New forecast layout! Learn more

10-Day Weather Forecast

Advertisements
Track Severe Weather on mobile